Time;durP1;ratioP1;P1;durP2;ratioP2;P2;SDS_P1;SDS_P2;PMS_P1;PMS_P2;Temp;Humidity;BMP_temperature;BMP_pressure;BME280_temperature;BME280_humidity;BME280_pressure;Samples;Min_cycle;Max_cycle;Signal;HPM_P1;HPM_P2
2021/04/28 00:00:38;;;;;;;8.80;5.37;;;;;;;;;;5075443;28;20778;-80
2021/04/28 00:06:08;;;;;;;11.50;6.20;;;;;;;;;;5074781;28;20419;-80
2021/04/28 00:08:34;;;;;;;9.47;6.30;;;;;;;;;;5074875;28;20418;-80
2021/04/28 00:11:00;;;;;;;6.53;5.63;;;;;;;;;;5074787;28;20502;-78
2021/04/28 00:13:26;;;;;;;7.47;6.07;;;;;;;;;;5074029;28;20468;-77
2021/04/28 00:15:52;;;;;;;9.67;7.43;;;;;;;;;;5075373;28;20417;-81
2021/04/28 00:21:22;;;;;;;6.77;5.87;;;;;;;;;;5075200;28;20532;-80
2021/04/28 00:23:48;;;;;;;10.63;7.00;;;;;;;;;;5074429;28;20577;-80
2021/04/28 00:26:16;;;;;;;8.73;5.73;;;;;;;;;;5074993;28;20449;-80
2021/04/28 00:28:42;;;;;;;13.63;6.10;;;;;;;;;;5075033;28;20420;-79
2021/04/28 00:31:08;;;;;;;6.17;5.40;;;;;;;;;;5076447;28;20416;-80
2021/04/28 00:33:34;;;;;;;10.10;6.80;;;;;;;;;;5076620;28;20418;-79
2021/04/28 00:36:00;;;;;;;8.43;5.23;;;;;;;;;;5075915;28;20407;-78
2021/04/28 00:38:27;;;;;;;6.53;5.30;;;;;;;;;;5074480;28;20835;-77
2021/04/28 00:40:53;;;;;;;12.90;6.77;;;;;;;;;;5074639;28;20522;-78
2021/04/28 00:43:19;;;;;;;7.13;6.07;;;;;;;;;;5073280;28;20781;-79
2021/04/28 00:45:46;;;;;;;9.40;6.10;;;;;;;;;;5073736;28;20412;-75
2021/04/28 00:51:15;;;;;;;10.67;6.87;;;;;;;;;;5074319;28;20420;-79
2021/04/28 00:53:41;;;;;;;7.57;6.47;;;;;;;;;;5074011;28;20799;-79
2021/04/28 00:56:08;;;;;;;7.63;6.20;;;;;;;;;;5072705;28;21097;-79
2021/04/28 00:58:34;;;;;;;8.83;6.03;;;;;;;;;;5074207;28;20438;-77
2021/04/28 01:01:00;;;;;;;7.60;6.10;;;;;;;;;;5074054;28;20433;-76
2021/04/28 01:06:29;;;;;;;9.23;5.80;;;;;;;;;;5074104;28;20477;-78
2021/04/28 01:08:55;;;;;;;9.37;6.87;;;;;;;;;;5073540;28;20509;-79
2021/04/28 01:11:21;;;;;;;7.40;6.40;;;;;;;;;;5073850;28;20855;-75
2021/04/28 01:13:48;;;;;;;7.20;5.70;;;;;;;;;;5073849;28;20422;-78
2021/04/28 01:16:14;;;;;;;11.00;6.60;;;;;;;;;;5073972;28;20411;-80
2021/04/28 01:21:43;;;;;;;9.70;5.60;;;;;;;;;;5073502;28;20418;-78
2021/04/28 01:24:09;;;;;;;8.17;6.47;;;;;;;;;;5073310;28;20467;-80
2021/04/28 01:26:36;;;;;;;9.53;5.73;;;;;;;;;;5073308;28;20495;-80
2021/04/28 01:29:02;;;;;;;9.27;6.47;;;;;;;;;;5073496;28;20427;-80
2021/04/28 01:31:30;;;;;;;8.03;6.70;;;;;;;;;;5073602;28;20421;-79
2021/04/28 01:36:59;;;;;;;7.77;6.30;;;;;;;;;;5072997;28;20507;-80
2021/04/28 01:39:25;;;;;;;6.40;5.13;;;;;;;;;;5073143;28;20414;-79
2021/04/28 01:41:52;;;;;;;9.27;6.30;;;;;;;;;;5073422;28;20558;-79
2021/04/28 01:44:20;;;;;;;10.83;6.47;;;;;;;;;;5073330;28;20526;-79
2021/04/28 01:46:46;;;;;;;8.83;6.43;;;;;;;;;;5073564;28;20498;-80
2021/04/28 01:49:12;;;;;;;8.30;6.63;;;;;;;;;;5077868;28;20419;-81
2021/04/28 01:51:39;;;;;;;6.70;6.10;;;;;;;;;;5084897;28;20487;-81
2021/04/28 01:54:10;;;;;;;8.73;6.00;;;;;;;;;;5073824;28;20427;-80
2021/04/28 01:56:36;;;;;;;6.07;5.40;;;;;;;;;;5073398;28;20422;-82
2021/04/28 01:59:04;;;;;;;7.07;6.37;;;;;;;;;;5072839;28;20442;-79
2021/04/28 02:01:30;;;;;;;6.93;5.73;;;;;;;;;;5073545;28;20449;-81
2021/04/28 02:07:00;;;;;;;9.20;7.23;;;;;;;;;;5072636;28;20880;-79
2021/04/28 02:09:26;;;;;;;9.63;6.80;;;;;;;;;;5072790;28;20762;-81
2021/04/28 02:11:52;;;;;;;8.20;6.70;;;;;;;;;;5072679;28;20474;-79
2021/04/28 02:14:22;;;;;;;8.97;6.30;;;;;;;;;;5072773;28;20905;-80
2021/04/28 02:16:49;;;;;;;16.07;6.90;;;;;;;;;;5072742;28;20804;-80
2021/04/28 02:22:19;;;;;;;12.00;7.10;;;;;;;;;;5072453;28;20462;-80
2021/04/28 02:24:45;;;;;;;9.70;6.17;;;;;;;;;;5071268;28;20449;-80
2021/04/28 02:27:11;;;;;;;9.73;7.50;;;;;;;;;;5072476;28;20422;-79
2021/04/28 02:29:37;;;;;;;7.50;6.60;;;;;;;;;;5072824;28;20436;-80
2021/04/28 02:32:04;;;;;;;8.87;6.07;;;;;;;;;;5072789;28;20433;-80
2021/04/28 02:37:33;;;;;;;12.13;6.97;;;;;;;;;;5071670;28;20443;-81
2021/04/28 02:40:03;;;;;;;11.03;7.33;;;;;;;;;;5072465;28;20422;-81
2021/04/28 02:42:29;;;;;;;10.53;7.30;;;;;;;;;;5072238;28;20424;-80
2021/04/28 02:44:57;;;;;;;7.37;5.97;;;;;;;;;;5072504;28;20438;-80
2021/04/28 02:47:23;;;;;;;9.20;6.70;;;;;;;;;;5071926;28;20430;-80
2021/04/28 02:49:50;;;;;;;9.00;6.70;;;;;;;;;;5070961;28;20438;-81
2021/04/28 02:52:16;;;;;;;9.00;6.63;;;;;;;;;;5072153;28;20521;-80
2021/04/28 02:54:42;;;;;;;10.43;7.20;;;;;;;;;;5071268;28;20430;-80
2021/04/28 02:57:08;;;;;;;10.30;6.50;;;;;;;;;;5072018;28;20825;-80
2021/04/28 02:59:34;;;;;;;8.80;7.90;;;;;;;;;;5072313;28;20845;-80
2021/04/28 03:02:00;;;;;;;9.80;6.10;;;;;;;;;;5071343;28;20440;-80
2021/04/28 03:07:30;;;;;;;9.10;7.50;;;;;;;;;;5071714;28;20420;-81
2021/04/28 03:09:56;;;;;;;8.00;7.00;;;;;;;;;;5072225;28;20877;-81
2021/04/28 03:12:23;;;;;;;5.70;5.10;;;;;;;;;;5071932;28;20466;-81
2021/04/28 03:14:49;;;;;;;9.03;6.10;;;;;;;;;;5072422;28;20414;-82
2021/04/28 03:17:15;;;;;;;7.60;6.33;;;;;;;;;;5072151;28;20426;-81
2021/04/28 03:22:45;;;;;;;7.00;6.20;;;;;;;;;;5071713;28;20488;-81
2021/04/28 03:25:11;;;;;;;6.87;6.00;;;;;;;;;;5072087;28;20424;-81
2021/04/28 03:27:38;;;;;;;10.97;6.47;;;;;;;;;;5072166;28;20441;-79
2021/04/28 03:30:07;;;;;;;9.27;6.23;;;;;;;;;;5071315;28;20475;-79
2021/04/28 03:32:33;;;;;;;8.30;5.80;;;;;;;;;;5072114;28;20513;-79
2021/04/28 03:38:03;;;;;;;9.17;5.63;;;;;;;;;;5071658;28;20411;-81
2021/04/28 03:40:29;;;;;;;6.53;5.50;;;;;;;;;;5072189;28;20426;-80
2021/04/28 03:42:55;;;;;;;7.03;6.20;;;;;;;;;;5071927;28;20994;-81
2021/04/28 03:45:21;;;;;;;7.10;5.63;;;;;;;;;;5085866;28;20410;-77
2021/04/28 03:47:47;;;;;;;6.80;6.10;;;;;;;;;;5075901;28;20414;-81
2021/04/28 03:50:14;;;;;;;6.90;6.20;;;;;;;;;;5076052;28;20567;-79
2021/04/28 03:52:40;;;;;;;8.93;6.13;;;;;;;;;;5075087;28;20965;-78
2021/04/28 03:55:07;;;;;;;7.03;6.33;;;;;;;;;;5075796;28;20763;-81
2021/04/28 03:57:33;;;;;;;10.97;6.50;;;;;;;;;;5075422;28;20779;-80
2021/04/28 03:59:59;;;;;;;8.40;5.83;;;;;;;;;;5075849;28;20772;-80
2021/04/28 04:02:25;;;;;;;7.77;6.60;;;;;;;;;;5074912;28;20410;-81
2021/04/28 04:07:55;;;;;;;7.10;5.70;;;;;;;;;;5074647;28;20421;-79
2021/04/28 04:10:21;;;;;;;5.97;5.37;;;;;;;;;;5074898;28;20450;-77
2021/04/28 04:12:46;;;;;;;6.33;5.70;;;;;;;;;;5074941;28;20972;-80
2021/04/28 04:15:13;;;;;;;8.67;6.17;;;;;;;;;;5074996;28;20410;-81
2021/04/28 04:17:38;;;;;;;10.17;6.83;;;;;;;;;;5074706;28;20446;-79
2021/04/28 04:23:08;;;;;;;7.90;7.03;;;;;;;;;;5074301;28;20816;-80
2021/04/28 04:25:34;;;;;;;8.33;7.43;;;;;;;;;;5074785;28;20948;-77
2021/04/28 04:28:01;;;;;;;13.10;9.20;;;;;;;;;;5075156;28;20426;-76
2021/04/28 04:30:27;;;;;;;11.07;7.17;;;;;;;;;;5073319;28;20442;-78
2021/04/28 04:32:53;;;;;;;15.23;7.60;;;;;;;;;;5074466;28;20959;-75
2021/04/28 04:38:23;;;;;;;9.50;7.70;;;;;;;;;;5074240;28;20475;-78
2021/04/28 04:40:49;;;;;;;12.50;7.43;;;;;;;;;;5074565;28;20516;-77
2021/04/28 04:43:15;;;;;;;9.57;7.60;;;;;;;;;;5074623;28;20509;-79
2021/04/28 04:45:41;;;;;;;15.40;7.67;;;;;;;;;;5074425;28;20425;-75
2021/04/28 04:48:08;;;;;;;12.10;8.10;;;;;;;;;;5073435;28;20446;-75
2021/04/28 04:50:35;;;;;;;16.43;7.73;;;;;;;;;;5074476;28;20485;-80
2021/04/28 04:53:02;;;;;;;8.20;7.40;;;;;;;;;;5074081;28;20744;-75
2021/04/28 04:55:28;;;;;;;13.50;8.37;;;;;;;;;;5074449;28;20814;-79
2021/04/28 04:57:54;;;;;;;13.63;6.50;;;;;;;;;;5073919;28;20425;-79
2021/04/28 05:00:20;;;;;;;18.53;7.63;;;;;;;;;;5074154;28;20417;-78
2021/04/28 05:02:46;;;;;;;10.17;7.73;;;;;;;;;;5074059;28;20491;-80
2021/04/28 05:08:16;;;;;;;13.23;8.60;;;;;;;;;;5073764;28;20448;-80
2021/04/28 05:10:41;;;;;;;9.63;7.20;;;;;;;;;;5074032;28;20519;-81
2021/04/28 05:13:08;;;;;;;10.20;7.80;;;;;;;;;;5074213;28;20812;-76
2021/04/28 05:15:34;;;;;;;10.63;8.20;;;;;;;;;;5072265;28;20430;-80
2021/04/28 05:18:00;;;;;;;12.57;7.30;;;;;;;;;;5073657;28;20427;-78
2021/04/28 05:23:30;;;;;;;11.00;7.10;;;;;;;;;;5073163;28;20703;-81
2021/04/28 05:25:56;;;;;;;13.20;7.50;;;;;;;;;;5074123;28;20515;-81
2021/04/28 05:28:22;;;;;;;11.63;7.40;;;;;;;;;;5073717;28;20424;-79
2021/04/28 05:30:48;;;;;;;14.40;9.00;;;;;;;;;;5073344;28;20607;-81
2021/04/28 05:33:14;;;;;;;10.87;8.40;;;;;;;;;;5074589;28;20884;-81
2021/04/28 05:38:43;;;;;;;12.10;7.47;;;;;;;;;;5086893;28;20518;-77
2021/04/28 05:41:09;;;;;;;10.53;8.20;;;;;;;;;;5081316;28;20426;-78
2021/04/28 05:43:35;;;;;;;9.63;8.63;;;;;;;;;;5076212;28;20836;-81
2021/04/28 05:46:02;;;;;;;17.33;7.90;;;;;;;;;;5072365;28;20479;-79
2021/04/28 05:48:28;;;;;;;14.20;8.70;;;;;;;;;;5073617;28;20437;-80
2021/04/28 05:53:57;;;;;;;10.37;8.10;;;;;;;;;;5072696;28;20776;-79
2021/04/28 05:56:23;;;;;;;11.23;7.90;;;;;;;;;;5072894;28;20425;-78
2021/04/28 05:58:49;;;;;;;11.20;8.30;;;;;;;;;;5072578;28;20446;-81
2021/04/28 06:01:15;;;;;;;11.63;8.00;;;;;;;;;;5072714;28;20522;-82
2021/04/28 06:03:41;;;;;;;11.80;9.53;;;;;;;;;;5072354;28;20472;-83
2021/04/28 06:09:11;;;;;;;13.10;7.57;;;;;;;;;;5072022;28;20416;-81
2021/04/28 06:11:37;;;;;;;9.03;8.10;;;;;;;;;;5071083;28;20950;-82
2021/04/28 06:14:03;;;;;;;13.77;8.23;;;;;;;;;;5072110;28;20444;-80
2021/04/28 06:16:29;;;;;;;14.73;9.43;;;;;;;;;;5071786;28;20402;-82
2021/04/28 06:18:55;;;;;;;15.20;8.50;;;;;;;;;;5071694;28;20410;-81
2021/04/28 06:24:24;;;;;;;11.80;9.17;;;;;;;;;;5072031;28;20498;-81
2021/04/28 06:26:50;;;;;;;12.10;9.90;;;;;;;;;;5071838;28;20418;-82
2021/04/28 06:29:17;;;;;;;10.13;8.90;;;;;;;;;;5071484;28;20426;-78
2021/04/28 06:31:43;;;;;;;14.70;9.60;;;;;;;;;;5071418;28;20425;-80
2021/04/28 06:34:09;;;;;;;13.90;9.80;;;;;;;;;;5071270;28;20427;-82
2021/04/28 06:36:35;;;;;;;13.07;9.83;;;;;;;;;;5070948;28;20414;-83
2021/04/28 06:39:01;;;;;;;12.30;8.80;;;;;;;;;;5071661;28;20712;-81
2021/04/28 06:41:27;;;;;;;10.83;9.70;;;;;;;;;;5071352;28;20421;-78
2021/04/28 06:43:53;;;;;;;10.60;9.47;;;;;;;;;;5071385;28;20477;-82
2021/04/28 06:46:19;;;;;;;11.10;9.63;;;;;;;;;;5070515;28;20429;-83
2021/04/28 06:48:45;;;;;;;12.60;9.00;;;;;;;;;;5071368;28;20476;-76
2021/04/28 06:54:14;;;;;;;10.03;8.87;;;;;;;;;;5070074;28;20506;-76
2021/04/28 06:56:43;;;;;;;12.03;9.60;;;;;;;;;;5070216;28;20509;-76
2021/04/28 06:59:15;;;;;;;9.97;8.43;;;;;;;;;;5070630;28;20407;-74
2021/04/28 07:01:41;;;;;;;11.30;9.90;;;;;;;;;;5070281;28;20429;-75
2021/04/28 07:04:07;;;;;;;10.33;8.67;;;;;;;;;;5070290;28;20469;-76
2021/04/28 07:09:37;;;;;;;13.13;9.57;;;;;;;;;;5069893;28;20534;-74
2021/04/28 07:12:03;;;;;;;12.60;9.27;;;;;;;;;;5069818;28;20498;-74
2021/04/28 07:14:29;;;;;;;11.63;8.50;;;;;;;;;;5069941;28;21081;-74
2021/04/28 07:16:55;;;;;;;11.30;9.50;;;;;;;;;;5069770;28;20410;-75
2021/04/28 07:19:21;;;;;;;12.00;9.80;;;;;;;;;;5069902;28;20501;-74
2021/04/28 07:24:51;;;;;;;10.57;9.37;;;;;;;;;;5073238;28;20558;-74
2021/04/28 07:27:17;;;;;;;14.97;10.10;;;;;;;;;;5072514;28;20422;-75
2021/04/28 07:29:43;;;;;;;11.17;9.97;;;;;;;;;;5073753;28;20431;-75
2021/04/28 07:32:09;;;;;;;14.17;9.83;;;;;;;;;;5073693;28;20421;-75
2021/04/28 07:34:35;;;;;;;10.07;8.80;;;;;;;;;;5073327;28;20440;-75
2021/04/28 07:40:05;;;;;;;10.20;8.77;;;;;;;;;;5075000;28;20418;-74
2021/04/28 07:42:31;;;;;;;12.60;10.33;;;;;;;;;;5075190;28;20449;-74
2021/04/28 07:44:57;;;;;;;14.13;9.07;;;;;;;;;;5076975;28;20912;-74
2021/04/28 07:47:23;;;;;;;9.70;8.80;;;;;;;;;;5076632;28;20508;-74
2021/04/28 07:49:49;;;;;;;15.83;9.27;;;;;;;;;;5075383;28;20429;-75
2021/04/28 07:55:18;;;;;;;11.70;9.40;;;;;;;;;;5074522;28;20748;-75
2021/04/28 07:57:45;;;;;;;12.13;10.90;;;;;;;;;;5075084;28;20550;-75
2021/04/28 08:00:11;;;;;;;15.67;9.33;;;;;;;;;;5074981;28;20420;-75
2021/04/28 08:02:37;;;;;;;13.87;10.47;;;;;;;;;;5075010;28;20448;-76
2021/04/28 08:05:04;;;;;;;15.00;9.97;;;;;;;;;;5074710;28;20442;-75
2021/04/28 08:07:29;;;;;;;10.70;9.60;;;;;;;;;;5070382;28;20418;-75
2021/04/28 08:09:55;;;;;;;13.27;8.77;;;;;;;;;;5071957;28;20436;-75
2021/04/28 08:12:21;;;;;;;11.27;9.77;;;;;;;;;;5071426;28;20475;-75
2021/04/28 08:14:47;;;;;;;10.83;8.83;;;;;;;;;;5071422;28;20845;-75
2021/04/28 08:17:13;;;;;;;11.17;9.27;;;;;;;;;;5071323;28;20421;-75
2021/04/28 08:19:39;;;;;;;11.43;9.40;;;;;;;;;;5071690;28;20433;-76
2021/04/28 08:25:10;;;;;;;11.80;9.80;;;;;;;;;;5062120;28;20436;-74
2021/04/28 08:27:37;;;;;;;10.73;8.67;;;;;;;;;;5068752;28;20789;-74
2021/04/28 08:30:07;;;;;;;11.90;9.30;;;;;;;;;;5070161;28;20429;-74
2021/04/28 08:32:33;;;;;;;20.67;10.43;;;;;;;;;;5068729;28;20495;-78
2021/04/28 08:34:59;;;;;;;14.13;10.07;;;;;;;;;;5068867;28;20814;-76
2021/04/28 08:40:29;;;;;;;16.97;9.77;;;;;;;;;;5072562;28;20420;-72
2021/04/28 08:42:55;;;;;;;10.83;9.60;;;;;;;;;;5072625;28;20544;-81
2021/04/28 08:45:21;;;;;;;12.27;10.20;;;;;;;;;;5071935;28;20422;-84
2021/04/28 08:47:47;;;;;;;15.73;9.90;;;;;;;;;;5072037;28;20412;-72
2021/04/28 08:50:14;;;;;;;13.83;10.03;;;;;;;;;;5072561;28;20463;-80
2021/04/28 08:55:44;;;;;;;15.20;10.07;;;;;;;;;;5072193;28;20899;-82
2021/04/28 08:58:11;;;;;;;13.90;9.83;;;;;;;;;;5071959;28;20512;-81
2021/04/28 09:00:37;;;;;;;13.43;10.20;;;;;;;;;;5071903;28;20407;-79
2021/04/28 09:03:04;;;;;;;14.93;10.10;;;;;;;;;;5071872;28;21090;-82
2021/04/28 09:05:31;;;;;;;13.67;9.20;;;;;;;;;;5077250;28;20452;-84
2021/04/28 09:11:00;;;;;;;16.03;10.87;;;;;;;;;;5072817;28;20464;-82
2021/04/28 09:13:26;;;;;;;15.60;11.30;;;;;;;;;;5071914;28;20418;-80
2021/04/28 09:15:52;;;;;;;14.17;10.43;;;;;;;;;;5072146;28;20406;-75
2021/04/28 09:18:19;;;;;;;17.30;10.93;;;;;;;;;;5071346;28;20414;-75
2021/04/28 09:20:53;;;;;;;15.90;9.63;;;;;;;;;;5072008;28;20463;-76
2021/04/28 09:23:21;;;;;;;13.90;9.37;;;;;;;;;;5071953;28;20457;-76
2021/04/28 09:25:48;;;;;;;11.87;10.40;;;;;;;;;;5072685;28;20445;-75
2021/04/28 09:28:29;;;;;;;10.93;9.20;;;;;;;;;;5071774;28;20422;-75
2021/04/28 09:31:07;;;;;;;21.73;10.37;;;;;;;;;;5072228;28;20787;-75
2021/04/28 09:33:45;;;;;;;11.73;10.27;;;;;;;;;;5072116;28;20486;-76
2021/04/28 09:36:13;;;;;;;11.53;9.30;;;;;;;;;;5071967;28;20414;-77
2021/04/28 09:38:54;;;;;;;13.20;8.97;;;;;;;;;;5071625;28;20407;-78
2021/04/28 09:41:34;;;;;;;11.77;8.70;;;;;;;;;;5073495;28;20409;-83
2021/04/28 09:44:00;;;;;;;10.60;9.07;;;;;;;;;;5072478;28;20995;-84
2021/04/28 09:46:26;;;;;;;11.53;10.10;;;;;;;;;;5073599;28;20410;-82
2021/04/28 09:48:59;;;;;;;11.57;9.73;;;;;;;;;;5073332;28;20570;-82
2021/04/28 09:51:33;;;;;;;10.70;9.40;;;;;;;;;;5073338;28;20947;-78
2021/04/28 09:54:09;;;;;;;13.50;9.10;;;;;;;;;;5072019;28;20483;-78
2021/04/28 09:56:39;;;;;;;17.23;11.17;;;;;;;;;;5073337;28;20410;-82
2021/04/28 09:59:05;;;;;;;12.50;9.70;;;;;;;;;;5073160;28;20414;-76
2021/04/28 10:01:35;;;;;;;12.00;9.23;;;;;;;;;;5073510;28;20808;-77
2021/04/28 10:04:02;;;;;;;11.83;9.90;;;;;;;;;;5071964;28;20866;-77
2021/04/28 10:06:47;;;;;;;14.97;10.40;;;;;;;;;;5078189;28;20446;-76
2021/04/28 10:09:33;;;;;;;14.00;9.90;;;;;;;;;;5080003;28;20777;-78
2021/04/28 10:11:59;;;;;;;15.47;10.20;;;;;;;;;;5073355;28;20481;-78
2021/04/28 10:14:26;;;;;;;11.17;8.40;;;;;;;;;;5075312;28;20540;-82
2021/04/28 10:16:54;;;;;;;13.83;10.03;;;;;;;;;;5078846;28;20709;-76
2021/04/28 10:19:22;;;;;;;8.00;7.20;;;;;;;;;;5075539;28;20418;-76
2021/04/28 10:21:48;;;;;;;11.70;6.80;;;;;;;;;;5074615;28;20446;-77
2021/04/28 10:24:16;;;;;;;11.03;7.83;;;;;;;;;;5074917;28;20470;-82
2021/04/28 10:26:42;;;;;;;10.20;7.90;;;;;;;;;;5073321;28;20505;-76
2021/04/28 10:29:09;;;;;;;8.93;8.03;;;;;;;;;;5073032;28;20453;-81
2021/04/28 10:31:38;;;;;;;10.70;8.57;;;;;;;;;;5073054;28;20896;-78
2021/04/28 10:34:06;;;;;;;9.77;7.13;;;;;;;;;;5073023;28;20422;-76
2021/04/28 10:36:32;;;;;;;7.97;6.10;;;;;;;;;;5072806;28;20422;-76
2021/04/28 10:38:59;;;;;;;11.00;8.60;;;;;;;;;;5072561;28;20464;-80
2021/04/28 10:41:42;;;;;;;11.70;9.53;;;;;;;;;;5072913;28;20418;-80
2021/04/28 10:44:28;;;;;;;14.83;8.03;;;;;;;;;;5072663;28;20474;-83
2021/04/28 10:47:12;;;;;;;11.10;6.77;;;;;;;;;;5072725;28;20432;-81
2021/04/28 10:49:58;;;;;;;10.00;8.63;;;;;;;;;;5072792;28;20497;-76
2021/04/28 10:52:31;;;;;;;8.07;6.80;;;;;;;;;;5072456;28;20410;-78
2021/04/28 10:54:57;;;;;;;10.03;6.60;;;;;;;;;;5072593;28;20410;-77
2021/04/28 10:57:39;;;;;;;7.93;6.50;;;;;;;;;;5073582;28;20414;-77
2021/04/28 11:00:20;;;;;;;11.80;5.73;;;;;;;;;;5076718;28;20425;-76
2021/04/28 11:02:47;;;;;;;9.43;6.67;;;;;;;;;;5075514;28;20414;-75
2021/04/28 11:05:24;;;;;;;9.13;6.60;;;;;;;;;;5076379;28;20429;-78
2021/04/28 11:07:55;;;;;;;7.50;6.63;;;;;;;;;;5073479;28;20421;-84
2021/04/28 11:10:37;;;;;;;12.00;5.87;;;;;;;;;;5073984;28;20964;-81
2021/04/28 11:13:18;;;;;;;9.77;6.80;;;;;;;;;;5074553;28;20436;-83
2021/04/28 11:15:47;;;;;;;7.43;6.77;;;;;;;;;;5074751;28;20471;-80
2021/04/28 11:18:26;;;;;;;13.63;9.27;;;;;;;;;;5074151;28;20707;-83
2021/04/28 11:21:12;;;;;;;8.57;6.17;;;;;;;;;;5074559;28;20442;-77
2021/04/28 11:23:38;;;;;;;10.00;6.03;;;;;;;;;;5070726;28;20502;-81
2021/04/28 11:26:23;;;;;;;7.87;6.27;;;;;;;;;;5073678;28;20414;-77
2021/04/28 11:28:49;;;;;;;7.57;6.10;;;;;;;;;;5073418;28;20425;-77
2021/04/28 11:31:25;;;;;;;9.90;5.83;;;;;;;;;;5072771;28;20422;-79
2021/04/28 11:33:51;;;;;;;13.20;6.33;;;;;;;;;;5072627;28;20492;-78
2021/04/28 11:36:18;;;;;;;10.07;7.67;;;;;;;;;;5073755;28;20474;-76
2021/04/28 11:38:46;;;;;;;9.37;6.67;;;;;;;;;;5073307;28;20406;-76
2021/04/28 11:41:25;;;;;;;7.97;6.87;;;;;;;;;;5074140;28;20505;-77
2021/04/28 11:43:53;;;;;;;6.43;5.67;;;;;;;;;;5076319;28;20510;-78
2021/04/28 11:46:21;;;;;;;7.50;5.17;;;;;;;;;;5075059;28;20421;-78
2021/04/28 11:48:50;;;;;;;9.70;7.40;;;;;;;;;;5074881;28;20776;-78
2021/04/28 11:51:17;;;;;;;8.37;7.13;;;;;;;;;;5074307;28;20414;-75
2021/04/28 11:53:48;;;;;;;8.43;4.90;;;;;;;;;;5073673;28;20465;-78
2021/04/28 11:56:27;;;;;;;5.93;3.30;;;;;;;;;;5072454;28;20424;-77
2021/04/28 11:58:53;;;;;;;5.73;4.13;;;;;;;;;;5068611;28;20410;-74
2021/04/28 12:01:19;;;;;;;5.00;4.20;;;;;;;;;;5071149;28;20417;-75
2021/04/28 12:03:55;;;;;;;4.33;3.87;;;;;;;;;;5070642;28;20473;-78
2021/04/28 12:06:25;;;;;;;4.13;3.70;;;;;;;;;;5070953;28;20414;-77
2021/04/28 12:09:03;;;;;;;8.63;3.17;;;;;;;;;;5068830;28;20422;-76
2021/04/28 12:11:29;;;;;;;3.60;3.30;;;;;;;;;;5070774;28;20548;-76
2021/04/28 12:13:55;;;;;;;4.67;4.27;;;;;;;;;;5071022;28;20509;-78
2021/04/28 12:16:21;;;;;;;4.60;4.20;;;;;;;;;;5070489;28;20426;-76
2021/04/28 12:18:47;;;;;;;5.20;3.20;;;;;;;;;;5070184;28;20881;-79
2021/04/28 12:21:13;;;;;;;5.17;3.60;;;;;;;;;;5070826;28;20497;-75
2021/04/28 12:23:40;;;;;;;3.43;3.13;;;;;;;;;;5069711;28;20687;-77
2021/04/28 12:26:09;;;;;;;5.27;3.63;;;;;;;;;;5069983;28;20410;-75
2021/04/28 12:28:55;;;;;;;3.57;3.27;;;;;;;;;;5070303;28;20414;-75
2021/04/28 12:31:39;;;;;;;4.67;3.10;;;;;;;;;;5070230;28;20444;-80
2021/04/28 12:34:05;;;;;;;3.80;3.50;;;;;;;;;;5071634;28;20426;-80
2021/04/28 12:36:31;;;;;;;4.80;3.40;;;;;;;;;;5079817;28;20726;-75
2021/04/28 12:38:57;;;;;;;10.50;5.83;;;;;;;;;;5080697;28;20421;-77
2021/04/28 12:41:23;;;;;;;8.97;6.07;;;;;;;;;;5073269;28;20449;-84
2021/04/28 12:43:50;;;;;;;4.80;3.70;;;;;;;;;;5073016;28;20483;-83
2021/04/28 12:46:17;;;;;;;4.90;3.30;;;;;;;;;;5072887;28;20422;-80
2021/04/28 12:48:58;;;;;;;7.50;6.50;;;;;;;;;;5072766;28;20417;-83
2021/04/28 12:51:24;;;;;;;9.63;6.77;;;;;;;;;;5073005;28;20422;-81
2021/04/28 12:53:50;;;;;;;8.57;7.03;;;;;;;;;;5072715;28;20508;-84
2021/04/28 12:56:17;;;;;;;12.33;7.83;;;;;;;;;;5073074;28;20819;-83
2021/04/28 12:58:44;;;;;;;7.93;6.63;;;;;;;;;;5072808;28;20405;-76
2021/04/28 13:01:20;;;;;;;8.63;6.90;;;;;;;;;;5073020;28;20729;-80
2021/04/28 13:03:46;;;;;;;11.93;8.00;;;;;;;;;;5071797;28;20470;-78
2021/04/28 13:06:19;;;;;;;7.97;7.00;;;;;;;;;;5078447;28;20414;-84
2021/04/28 13:08:46;;;;;;;12.07;6.50;;;;;;;;;;5073425;28;20422;-85
2021/04/28 13:11:19;;;;;;;9.70;6.10;;;;;;;;;;5072897;28;20799;-83
2021/04/28 13:13:52;;;;;;;7.40;6.07;;;;;;;;;;5073142;28;20422;-81
2021/04/28 13:16:29;;;;;;;7.50;5.27;;;;;;;;;;5072449;28;20402;-80
2021/04/28 13:18:55;;;;;;;6.00;5.23;;;;;;;;;;5072391;28;20444;-79
2021/04/28 13:21:21;;;;;;;7.30;4.60;;;;;;;;;;5071801;28;20460;-79
2021/04/28 13:24:00;;;;;;;9.53;5.90;;;;;;;;;;5071770;28;20822;-82
2021/04/28 13:26:27;;;;;;;8.00;5.93;;;;;;;;;;5072491;28;20749;-75
2021/04/28 13:28:57;;;;;;;8.40;6.10;;;;;;;;;;5072401;28;20431;-79
2021/04/28 13:31:24;;;;;;;8.13;5.80;;;;;;;;;;5072509;28;20794;-75
2021/04/28 13:33:51;;;;;;;8.20;6.37;;;;;;;;;;5072048;28;20421;-76
2021/04/28 13:36:28;;;;;;;9.37;6.17;;;;;;;;;;5071912;28;20414;-84
2021/04/28 13:38:55;;;;;;;7.40;5.67;;;;;;;;;;5071702;28;20471;-80
2021/04/28 13:41:21;;;;;;;7.97;5.30;;;;;;;;;;5071359;28;20414;-85
2021/04/28 13:43:47;;;;;;;9.67;5.00;;;;;;;;;;5071398;28;20813;-83
2021/04/28 13:46:13;;;;;;;6.67;6.00;;;;;;;;;;5071358;28;20421;-80
2021/04/28 13:48:39;;;;;;;6.07;4.93;;;;;;;;;;5070844;28;20411;-79
2021/04/28 13:51:06;;;;;;;9.80;4.93;;;;;;;;;;5069659;28;20398;-81
2021/04/28 13:53:32;;;;;;;9.63;4.20;;;;;;;;;;5069709;28;20464;-81
2021/04/28 13:55:59;;;;;;;5.40;4.70;;;;;;;;;;5070890;28;20448;-82
2021/04/28 13:58:25;;;;;;;4.80;4.30;;;;;;;;;;5071672;28;20407;-80
2021/04/28 14:00:51;;;;;;;5.50;4.60;;;;;;;;;;5070106;28;20406;-78
2021/04/28 14:03:17;;;;;;;6.63;4.77;;;;;;;;;;5069730;28;20465;-80
2021/04/28 14:05:43;;;;;;;13.37;4.63;;;;;;;;;;5070479;28;20419;-83
2021/04/28 14:08:09;;;;;;;5.47;4.40;;;;;;;;;;5070141;28;20513;-86
2021/04/28 14:10:37;;;;;;;6.23;5.07;;;;;;;;;;5070016;28;20614;-80
2021/04/28 14:13:03;;;;;;;6.77;4.33;;;;;;;;;;5070177;28;20513;-85
2021/04/28 14:15:29;;;;;;;5.50;4.60;;;;;;;;;;5070280;28;20425;-82
2021/04/28 14:17:55;;;;;;;5.70;4.10;;;;;;;;;;5068806;28;20495;-84
2021/04/28 14:20:21;;;;;;;6.60;4.63;;;;;;;;;;5070699;28;20426;-84
2021/04/28 14:22:47;;;;;;;7.53;4.23;;;;;;;;;;5069826;28;20429;-77
2021/04/28 14:25:13;;;;;;;4.60;3.93;;;;;;;;;;5068634;28;20426;-82
2021/04/28 14:27:39;;;;;;;5.20;4.37;;;;;;;;;;5070822;28;20398;-75
2021/04/28 14:30:06;;;;;;;6.90;3.90;;;;;;;;;;5072790;28;20421;-78
2021/04/28 14:32:32;;;;;;;4.03;3.67;;;;;;;;;;5069456;28;20421;-82
2021/04/28 14:34:58;;;;;;;4.40;4.00;;;;;;;;;;5068719;28;20479;-81
2021/04/28 14:37:24;;;;;;;5.13;3.63;;;;;;;;;;5069648;28;20900;-80
2021/04/28 14:42:54;;;;;;;5.43;3.57;;;;;;;;;;5069950;28;20516;-81
2021/04/28 14:45:20;;;;;;;10.07;4.10;;;;;;;;;;5070220;28;20437;-82
2021/04/28 14:47:47;;;;;;;4.00;3.60;;;;;;;;;;5069791;28;20417;-82
2021/04/28 14:50:13;;;;;;;6.17;4.10;;;;;;;;;;5069618;28;20418;-81
2021/04/28 14:52:39;;;;;;;4.77;3.87;;;;;;;;;;5069430;28;20501;-77
2021/04/28 14:55:05;;;;;;;7.60;4.87;;;;;;;;;;5069650;28;20422;-81
2021/04/28 14:57:31;;;;;;;4.77;3.87;;;;;;;;;;5070015;28;20421;-76
2021/04/28 14:59:57;;;;;;;5.30;4.80;;;;;;;;;;5070336;28;20505;-82
2021/04/28 15:02:23;;;;;;;5.80;4.40;;;;;;;;;;5069991;28;20796;-80
2021/04/28 15:04:52;;;;;;;5.70;4.67;;;;;;;;;;5071548;28;20503;-76
2021/04/28 15:07:18;;;;;;;5.57;4.97;;;;;;;;;;5079395;28;20752;-74
2021/04/28 15:12:48;;;;;;;7.10;5.40;;;;;;;;;;5072166;28;20559;-80
2021/04/28 15:15:15;;;;;;;6.20;4.13;;;;;;;;;;5071279;28;20441;-74
2021/04/28 15:17:40;;;;;;;10.87;5.23;;;;;;;;;;5071290;28;20908;-77
2021/04/28 15:20:07;;;;;;;5.70;4.70;;;;;;;;;;5071652;28;20422;-79
2021/04/28 15:22:33;;;;;;;3.67;3.03;;;;;;;;;;5068894;28;20422;-82
2021/04/28 15:28:03;;;;;;;6.03;4.80;;;;;;;;;;5069249;28;20417;-77
2021/04/28 15:30:29;;;;;;;6.70;4.97;;;;;;;;;;5069806;28;20402;-77
2021/04/28 15:32:55;;;;;;;6.17;5.23;;;;;;;;;;5069520;28;21075;-79
2021/04/28 15:35:21;;;;;;;8.27;4.30;;;;;;;;;;5069271;28;20414;-77
2021/04/28 15:37:47;;;;;;;13.43;5.47;;;;;;;;;;5070087;28;20900;-81
2021/04/28 15:43:17;;;;;;;7.40;5.13;;;;;;;;;;5070324;28;20452;-81
2021/04/28 15:45:44;;;;;;;6.37;4.87;;;;;;;;;;5072971;28;20955;-81
2021/04/28 15:48:10;;;;;;;8.47;5.27;;;;;;;;;;5073110;28;20525;-77
2021/04/28 15:50:37;;;;;;;6.23;4.53;;;;;;;;;;5073828;28;20434;-78
2021/04/28 15:58:52;;;;;;;4.97;4.47;;;;;;;;;;5073073;28;20824;-80
2021/04/28 16:01:18;;;;;;;4.87;3.93;;;;;;;;;;5073226;28;20418;-77
2021/04/28 16:03:45;;;;;;;6.07;4.77;;;;;;;;;;5072347;28;20895;-76
2021/04/28 16:06:11;;;;;;;6.47;4.00;;;;;;;;;;5072904;28;20414;-76
2021/04/28 16:08:38;;;;;;;6.23;3.97;;;;;;;;;;5072517;28;20422;-79
2021/04/28 16:11:04;;;;;;;6.60;3.17;;;;;;;;;;5072529;28;20622;-80
2021/04/28 16:13:29;;;;;;;3.67;3.03;;;;;;;;;;5071565;28;20450;-73
2021/04/28 16:15:56;;;;;;;8.20;4.40;;;;;;;;;;5071241;28;20410;-74
2021/04/28 16:18:23;;;;;;;7.20;3.83;;;;;;;;;;5071198;28;20505;-75
2021/04/28 16:20:49;;;;;;;5.33;4.03;;;;;;;;;;5071977;28;20430;-76
2021/04/28 16:23:15;;;;;;;11.10;4.20;;;;;;;;;;5070735;28;20470;-79
2021/04/28 16:25:41;;;;;;;11.30;4.80;;;;;;;;;;5071716;28;20429;-75
2021/04/28 16:28:07;;;;;;;6.87;4.90;;;;;;;;;;5071626;28;20414;-81